sensor_id;sensor_type;location;lat;lon;timestamp;P1;P2;P0
51052;PMS5003;37093;37.716;-122.060;2023-02-26T00:01:39;0;0;
51052;PMS5003;37093;37.716;-122.060;2023-02-26T00:04:08;1;1;
51052;PMS5003;37093;37.716;-122.060;2023-02-26T00:06:38;0;0;
51052;PMS5003;37093;37.716;-122.060;2023-02-26T00:09:07;0;0;
51052;PMS5003;37093;37.716;-122.060;2023-02-26T00:11:37;0;0;
51052;PMS5003;37093;37.716;-122.060;2023-02-26T00:14:08;1;0;
51052;PMS5003;37093;37.716;-122.060;2023-02-26T00:16:39;2;2;
51052;PMS5003;37093;37.716;-122.060;2023-02-26T00:19:09;1;1;
51052;PMS5003;37093;37.716;-122.060;2023-02-26T00:21:39;1;1;
51052;PMS5003;37093;37.716;-122.060;2023-02-26T00:24:07;1;1;
51052;PMS5003;37093;37.716;-122.060;2023-02-26T00:26:36;1;1;
51052;PMS5003;37093;37.716;-122.060;2023-02-26T00:29:05;0;0;
51052;PMS5003;37093;37.716;-122.060;2023-02-26T00:31:34;1;1;
51052;PMS5003;37093;37.716;-122.060;2023-02-26T00:34:03;1;1;
51052;PMS5003;37093;37.716;-122.060;2023-02-26T00:36:34;2;2;
51052;PMS5003;37093;37.716;-122.060;2023-02-26T00:39:14;2;2;
51052;PMS5003;37093;37.716;-122.060;2023-02-26T00:41:55;2;2;
51052;PMS5003;37093;37.716;-122.060;2023-02-26T00:44:24;3;3;
51052;PMS5003;37093;37.716;-122.060;2023-02-26T00:46:55;3;3;
51052;PMS5003;37093;37.716;-122.060;2023-02-26T00:49:29;3;2;
51052;PMS5003;37093;37.716;-122.060;2023-02-26T00:52:12;2;2;
51052;PMS5003;37093;37.716;-122.060;2023-02-26T00:54:46;3;3;
51052;PMS5003;37093;37.716;-122.060;2023-02-26T00:57:15;3;2;
51052;PMS5003;37093;37.716;-122.060;2023-02-26T00:59:43;2;2;
51052;PMS5003;37093;37.716;-122.060;2023-02-26T01:02:12;3;3;
51052;PMS5003;37093;37.716;-122.060;2023-02-26T01:04:41;2;2;
51052;PMS5003;37093;37.716;-122.060;2023-02-26T01:07:10;2;2;
51052;PMS5003;37093;37.716;-122.060;2023-02-26T01:09:39;3;3;
51052;PMS5003;37093;37.716;-122.060;2023-02-26T01:12:08;3;3;
51052;PMS5003;37093;37.716;-122.060;2023-02-26T01:14:38;4;4;
51052;PMS5003;37093;37.716;-122.060;2023-02-26T01:17:10;3;3;
51052;PMS5003;37093;37.716;-122.060;2023-02-26T01:19:45;2;2;
51052;PMS5003;37093;37.716;-122.060;2023-02-26T01:22:18;7;5;
51052;PMS5003;37093;37.716;-122.060;2023-02-26T01:24:50;4;3;
51052;PMS5003;37093;37.716;-122.060;2023-02-26T01:27:26;4;3;
51052;PMS5003;37093;37.716;-122.060;2023-02-26T01:29:54;6;5;
51052;PMS5003;37093;37.716;-122.060;2023-02-26T01:32:24;3;3;
51052;PMS5003;37093;37.716;-122.060;2023-02-26T01:34:58;5;4;
51052;PMS5003;37093;37.716;-122.060;2023-02-26T01:37:34;5;4;
51052;PMS5003;37093;37.716;-122.060;2023-02-26T01:40:16;5;4;
51052;PMS5003;37093;37.716;-122.060;2023-02-26T01:43:02;3;3;
51052;PMS5003;37093;37.716;-122.060;2023-02-26T01:45:34;5;5;
51052;PMS5003;37093;37.716;-122.060;2023-02-26T01:48:10;4;4;
51052;PMS5003;37093;37.716;-122.060;2023-02-26T01:50:44;3;3;
51052;PMS5003;37093;37.716;-122.060;2023-02-26T01:53:16;4;3;
51052;PMS5003;37093;37.716;-122.060;2023-02-26T01:55:48;5;4;
51052;PMS5003;37093;37.716;-122.060;2023-02-26T01:58:20;3;3;
51052;PMS5003;37093;37.716;-122.060;2023-02-26T02:00:51;4;4;
51052;PMS5003;37093;37.716;-122.060;2023-02-26T02:03:19;3;3;
51052;PMS5003;37093;37.716;-122.060;2023-02-26T02:05:51;3;3;
51052;PMS5003;37093;37.716;-122.060;2023-02-26T02:08:23;2;2;
51052;PMS5003;37093;37.716;-122.060;2023-02-26T02:10:51;6;6;
51052;PMS5003;37093;37.716;-122.060;2023-02-26T02:13:24;3;3;
51052;PMS5003;37093;37.716;-122.060;2023-02-26T02:16:04;4;4;
51052;PMS5003;37093;37.716;-122.060;2023-02-26T02:18:45;4;4;
51052;PMS5003;37093;37.716;-122.060;2023-02-26T02:21:42;3;3;
51052;PMS5003;37093;37.716;-122.060;2023-02-26T02:24:20;2;2;
51052;PMS5003;37093;37.716;-122.060;2023-02-26T02:27:03;4;3;
51052;PMS5003;37093;37.716;-122.060;2023-02-26T02:29:44;3;3;
51052;PMS5003;37093;37.716;-122.060;2023-02-26T02:32:55;4;2;
51052;PMS5003;37093;37.716;-122.060;2023-02-26T02:35:28;3;3;
51052;PMS5003;37093;37.716;-122.060;2023-02-26T02:38:03;3;3;
51052;PMS5003;37093;37.716;-122.060;2023-02-26T02:40:36;2;2;
51052;PMS5003;37093;37.716;-122.060;2023-02-26T02:43:09;3;3;
51052;PMS5003;37093;37.716;-122.060;2023-02-26T02:45:42;3;3;
51052;PMS5003;37093;37.716;-122.060;2023-02-26T02:48:17;5;3;
51052;PMS5003;37093;37.716;-122.060;2023-02-26T02:50:50;4;4;
51052;PMS5003;37093;37.716;-122.060;2023-02-26T02:53:23;4;4;
51052;PMS5003;37093;37.716;-122.060;2023-02-26T02:55:58;5;4;
51052;PMS5003;37093;37.716;-122.060;2023-02-26T02:58:34;6;5;
51052;PMS5003;37093;37.716;-122.060;2023-02-26T03:01:07;6;5;
51052;PMS5003;37093;37.716;-122.060;2023-02-26T03:03:42;8;6;
51052;PMS5003;37093;37.716;-122.060;2023-02-26T03:06:15;8;5;
51052;PMS5003;37093;37.716;-122.060;2023-02-26T03:08:44;9;5;
51052;PMS5003;37093;37.716;-122.060;2023-02-26T03:11:14;5;5;
51052;PMS5003;37093;37.716;-122.060;2023-02-26T03:13:42;5;5;
51052;PMS5003;37093;37.716;-122.060;2023-02-26T03:16:22;5;5;
51052;PMS5003;37093;37.716;-122.060;2023-02-26T03:19:04;6;6;
51052;PMS5003;37093;37.716;-122.060;2023-02-26T03:21:45;6;5;
51052;PMS5003;37093;37.716;-122.060;2023-02-26T03:24:18;5;4;
51052;PMS5003;37093;37.716;-122.060;2023-02-26T03:26:55;3;3;
51052;PMS5003;37093;37.716;-122.060;2023-02-26T03:29:29;5;3;
51052;PMS5003;37093;37.716;-122.060;2023-02-26T03:32:07;5;4;
51052;PMS5003;37093;37.716;-122.060;2023-02-26T03:34:42;2;2;
51052;PMS5003;37093;37.716;-122.060;2023-02-26T03:37:17;4;3;
51052;PMS5003;37093;37.716;-122.060;2023-02-26T03:39:50;3;3;
51052;PMS5003;37093;37.716;-122.060;2023-02-26T03:42:23;4;3;
51052;PMS5003;37093;37.716;-122.060;2023-02-26T03:44:56;3;3;
51052;PMS5003;37093;37.716;-122.060;2023-02-26T03:47:27;5;3;
51052;PMS5003;37093;37.716;-122.060;2023-02-26T03:49:58;3;3;
51052;PMS5003;37093;37.716;-122.060;2023-02-26T03:52:30;3;3;
51052;PMS5003;37093;37.716;-122.060;2023-02-26T03:55:04;1;1;
51052;PMS5003;37093;37.716;-122.060;2023-02-26T03:57:36;4;4;
51052;PMS5003;37093;37.716;-122.060;2023-02-26T04:00:06;3;3;
51052;PMS5003;37093;37.716;-122.060;2023-02-26T04:02:39;2;2;
51052;PMS5003;37093;37.716;-122.060;2023-02-26T04:05:13;3;3;
51052;PMS5003;37093;37.716;-122.060;2023-02-26T04:07:43;3;2;
51052;PMS5003;37093;37.716;-122.060;2023-02-26T04:10:13;3;3;
51052;PMS5003;37093;37.716;-122.060;2023-02-26T04:12:45;4;1;
51052;PMS5003;37093;37.716;-122.060;2023-02-26T04:15:14;3;3;
51052;PMS5003;37093;37.716;-122.060;2023-02-26T04:17:42;3;3;
51052;PMS5003;37093;37.716;-122.060;2023-02-26T04:20:11;4;4;
51052;PMS5003;37093;37.716;-122.060;2023-02-26T04:22:39;5;5;
51052;PMS5003;37093;37.716;-122.060;2023-02-26T04:25:09;6;4;
51052;PMS5003;37093;37.716;-122.060;2023-02-26T04:27:37;9;5;
51052;PMS5003;37093;37.716;-122.060;2023-02-26T04:30:06;4;2;
51052;PMS5003;37093;37.716;-122.060;2023-02-26T04:32:36;4;2;
51052;PMS5003;37093;37.716;-122.060;2023-02-26T04:35:05;2;2;
51052;PMS5003;37093;37.716;-122.060;2023-02-26T04:37:34;4;4;
51052;PMS5003;37093;37.716;-122.060;2023-02-26T04:40:03;3;3;
51052;PMS5003;37093;37.716;-122.060;2023-02-26T04:42:33;6;4;
51052;PMS5003;37093;37.716;-122.060;2023-02-26T04:45:02;3;2;
51052;PMS5003;37093;37.716;-122.060;2023-02-26T04:47:31;3;3;
51052;PMS5003;37093;37.716;-122.060;2023-02-26T04:50:00;2;2;
51052;PMS5003;37093;37.716;-122.060;2023-02-26T04:52:28;2;2;
51052;PMS5003;37093;37.716;-122.060;2023-02-26T04:54:57;2;2;
51052;PMS5003;37093;37.716;-122.060;2023-02-26T04:57:27;6;2;
51052;PMS5003;37093;37.716;-122.060;2023-02-26T04:59:55;1;1;
51052;PMS5003;37093;37.716;-122.060;2023-02-26T05:02:24;2;2;
51052;PMS5003;37093;37.716;-122.060;2023-02-26T05:04:52;1;0;
51052;PMS5003;37093;37.716;-122.060;2023-02-26T05:07:21;1;1;
51052;PMS5003;37093;37.716;-122.060;2023-02-26T05:09:49;1;1;
51052;PMS5003;37093;37.716;-122.060;2023-02-26T05:12:18;1;1;
51052;PMS5003;37093;37.716;-122.060;2023-02-26T05:14:47;1;1;
51052;PMS5003;37093;37.716;-122.060;2023-02-26T05:17:15;1;1;
51052;PMS5003;37093;37.716;-122.060;2023-02-26T05:19:44;2;0;
51052;PMS5003;37093;37.716;-122.060;2023-02-26T05:22:13;2;0;
51052;PMS5003;37093;37.716;-122.060;2023-02-26T05:24:41;2;1;
51052;PMS5003;37093;37.716;-122.060;2023-02-26T05:27:10;0;0;
51052;PMS5003;37093;37.716;-122.060;2023-02-26T05:29:38;1;1;
51052;PMS5003;37093;37.716;-122.060;2023-02-26T05:32:07;1;1;
51052;PMS5003;37093;37.716;-122.060;2023-02-26T05:34:36;1;1;
51052;PMS5003;37093;37.716;-122.060;2023-02-26T05:37:04;1;1;
51052;PMS5003;37093;37.716;-122.060;2023-02-26T05:39:33;2;2;
51052;PMS5003;37093;37.716;-122.060;2023-02-26T05:42:02;1;1;
51052;PMS5003;37093;37.716;-122.060;2023-02-26T05:44:30;0;0;
51052;PMS5003;37093;37.716;-122.060;2023-02-26T05:46:59;1;1;
51052;PMS5003;37093;37.716;-122.060;2023-02-26T05:49:27;3;1;
51052;PMS5003;37093;37.716;-122.060;2023-02-26T05:51:56;1;1;
51052;PMS5003;37093;37.716;-122.060;2023-02-26T05:54:25;4;1;
51052;PMS5003;37093;37.716;-122.060;2023-02-26T05:56:53;1;1;
51052;PMS5003;37093;37.716;-122.060;2023-02-26T05:59:22;3;1;
51052;PMS5003;37093;37.716;-122.060;2023-02-26T06:01:50;2;1;
51052;PMS5003;37093;37.716;-122.060;2023-02-26T06:04:19;1;1;
51052;PMS5003;37093;37.716;-122.060;2023-02-26T06:06:48;2;2;
51052;PMS5003;37093;37.716;-122.060;2023-02-26T06:09:16;2;2;
51052;PMS5003;37093;37.716;-122.060;2023-02-26T06:11:45;3;2;
51052;PMS5003;37093;37.716;-122.060;2023-02-26T06:14:13;4;4;
51052;PMS5003;37093;37.716;-122.060;2023-02-26T06:16:42;4;4;
51052;PMS5003;37093;37.716;-122.060;2023-02-26T06:19:11;3;3;
51052;PMS5003;37093;37.716;-122.060;2023-02-26T06:21:39;3;2;
51052;PMS5003;37093;37.716;-122.060;2023-02-26T06:24:08;2;2;
51052;PMS5003;37093;37.716;-122.060;2023-02-26T06:26:37;4;4;
51052;PMS5003;37093;37.716;-122.060;2023-02-26T06:29:06;3;3;
51052;PMS5003;37093;37.716;-122.060;2023-02-26T06:31:34;4;4;
51052;PMS5003;37093;37.716;-122.060;2023-02-26T06:34:02;4;2;
51052;PMS5003;37093;37.716;-122.060;2023-02-26T06:36:31;2;2;
51052;PMS5003;37093;37.716;-122.060;2023-02-26T06:39:00;3;2;
51052;PMS5003;37093;37.716;-122.060;2023-02-26T06:41:29;2;2;
51052;PMS5003;37093;37.716;-122.060;2023-02-26T06:43:58;2;2;
51052;PMS5003;37093;37.716;-122.060;2023-02-26T06:46:26;3;3;
51052;PMS5003;37093;37.716;-122.060;2023-02-26T06:48:55;2;2;
51052;PMS5003;37093;37.716;-122.060;2023-02-26T06:51:24;3;3;
51052;PMS5003;37093;37.716;-122.060;2023-02-26T06:53:52;3;2;
51052;PMS5003;37093;37.716;-122.060;2023-02-26T06:56:21;2;2;
51052;PMS5003;37093;37.716;-122.060;2023-02-26T06:58:50;2;2;
51052;PMS5003;37093;37.716;-122.060;2023-02-26T07:01:19;3;3;
51052;PMS5003;37093;37.716;-122.060;2023-02-26T07:03:47;3;3;
51052;PMS5003;37093;37.716;-122.060;2023-02-26T07:06:15;2;2;
51052;PMS5003;37093;37.716;-122.060;2023-02-26T07:08:44;3;2;
51052;PMS5003;37093;37.716;-122.060;2023-02-26T07:11:13;3;3;
51052;PMS5003;37093;37.716;-122.060;2023-02-26T07:13:41;2;2;
51052;PMS5003;37093;37.716;-122.060;2023-02-26T07:16:10;3;3;
51052;PMS5003;37093;37.716;-122.060;2023-02-26T07:18:39;3;3;
51052;PMS5003;37093;37.716;-122.060;2023-02-26T07:21:07;3;3;
51052;PMS5003;37093;37.716;-122.060;2023-02-26T07:23:36;3;2;
51052;PMS5003;37093;37.716;-122.060;2023-02-26T07:26:04;6;4;
51052;PMS5003;37093;37.716;-122.060;2023-02-26T07:28:33;4;4;
51052;PMS5003;37093;37.716;-122.060;2023-02-26T07:31:02;5;4;
51052;PMS5003;37093;37.716;-122.060;2023-02-26T07:33:30;4;3;
51052;PMS5003;37093;37.716;-122.060;2023-02-26T07:35:59;3;3;
51052;PMS5003;37093;37.716;-122.060;2023-02-26T07:38:28;3;3;
51052;PMS5003;37093;37.716;-122.060;2023-02-26T07:40:56;3;3;
51052;PMS5003;37093;37.716;-122.060;2023-02-26T07:43:25;5;4;
51052;PMS5003;37093;37.716;-122.060;2023-02-26T07:45:53;3;3;
51052;PMS5003;37093;37.716;-122.060;2023-02-26T07:48:22;3;3;
51052;PMS5003;37093;37.716;-122.060;2023-02-26T07:50:51;4;4;
51052;PMS5003;37093;37.716;-122.060;2023-02-26T07:53:20;4;3;
51052;PMS5003;37093;37.716;-122.060;2023-02-26T07:55:49;4;3;
51052;PMS5003;37093;37.716;-122.060;2023-02-26T07:58:18;5;5;
51052;PMS5003;37093;37.716;-122.060;2023-02-26T08:01:09;3;3;
51052;PMS5003;37093;37.716;-122.060;2023-02-26T08:03:39;3;3;
51052;PMS5003;37093;37.716;-122.060;2023-02-26T08:06:08;4;4;
51052;PMS5003;37093;37.716;-122.060;2023-02-26T08:08:36;3;3;
51052;PMS5003;37093;37.716;-122.060;2023-02-26T08:11:05;3;3;
51052;PMS5003;37093;37.716;-122.060;2023-02-26T08:13:34;2;2;
51052;PMS5003;37093;37.716;-122.060;2023-02-26T08:16:02;3;3;
51052;PMS5003;37093;37.716;-122.060;2023-02-26T08:18:31;4;4;
51052;PMS5003;37093;37.716;-122.060;2023-02-26T08:20:59;3;3;
51052;PMS5003;37093;37.716;-122.060;2023-02-26T08:23:28;4;2;
51052;PMS5003;37093;37.716;-122.060;2023-02-26T08:26:00;2;2;
51052;PMS5003;37093;37.716;-122.060;2023-02-26T08:28:29;3;3;
51052;PMS5003;37093;37.716;-122.060;2023-02-26T08:30:58;5;4;
51052;PMS5003;37093;37.716;-122.060;2023-02-26T08:33:28;3;2;
51052;PMS5003;37093;37.716;-122.060;2023-02-26T08:35:56;3;3;
51052;PMS5003;37093;37.716;-122.060;2023-02-26T08:38:25;3;2;
51052;PMS5003;37093;37.716;-122.060;2023-02-26T08:40:53;3;2;
51052;PMS5003;37093;37.716;-122.060;2023-02-26T08:43:22;7;4;
51052;PMS5003;37093;37.716;-122.060;2023-02-26T08:45:51;8;4;
51052;PMS5003;37093;37.716;-122.060;2023-02-26T08:48:20;7;7;
51052;PMS5003;37093;37.716;-122.060;2023-02-26T08:50:49;9;6;
51052;PMS5003;37093;37.716;-122.060;2023-02-26T08:53:18;7;5;
51052;PMS5003;37093;37.716;-122.060;2023-02-26T08:55:47;9;6;
51052;PMS5003;37093;37.716;-122.060;2023-02-26T08:58:16;8;7;
51052;PMS5003;37093;37.716;-122.060;2023-02-26T09:00:45;7;5;
51052;PMS5003;37093;37.716;-122.060;2023-02-26T09:03:14;5;5;
51052;PMS5003;37093;37.716;-122.060;2023-02-26T09:05:43;6;5;
51052;PMS5003;37093;37.716;-122.060;2023-02-26T09:08:12;7;4;
51052;PMS5003;37093;37.716;-122.060;2023-02-26T09:10:40;6;4;
51052;PMS5003;37093;37.716;-122.060;2023-02-26T09:13:09;6;4;
51052;PMS5003;37093;37.716;-122.060;2023-02-26T09:15:38;5;5;
51052;PMS5003;37093;37.716;-122.060;2023-02-26T09:18:06;6;6;
51052;PMS5003;37093;37.716;-122.060;2023-02-26T09:20:34;4;4;
51052;PMS5003;37093;37.716;-122.060;2023-02-26T09:23:03;6;6;
51052;PMS5003;37093;37.716;-122.060;2023-02-26T09:25:32;6;6;
51052;PMS5003;37093;37.716;-122.060;2023-02-26T09:28:00;10;6;
51052;PMS5003;37093;37.716;-122.060;2023-02-26T09:30:29;5;4;
51052;PMS5003;37093;37.716;-122.060;2023-02-26T09:32:57;5;5;
51052;PMS5003;37093;37.716;-122.060;2023-02-26T09:35:26;7;6;
51052;PMS5003;37093;37.716;-122.060;2023-02-26T09:37:55;6;6;
51052;PMS5003;37093;37.716;-122.060;2023-02-26T09:40:27;9;6;
51052;PMS5003;37093;37.716;-122.060;2023-02-26T09:43:06;5;5;
51052;PMS5003;37093;37.716;-122.060;2023-02-26T09:45:51;7;7;
51052;PMS5003;37093;37.716;-122.060;2023-02-26T09:48:24;5;5;
51052;PMS5003;37093;37.716;-122.060;2023-02-26T09:50:55;16;8;
51052;PMS5003;37093;37.716;-122.060;2023-02-26T09:53:26;7;5;
51052;PMS5003;37093;37.716;-122.060;2023-02-26T09:55:57;6;6;
51052;PMS5003;37093;37.716;-122.060;2023-02-26T09:58:32;6;6;
51052;PMS5003;37093;37.716;-122.060;2023-02-26T10:01:04;5;5;
51052;PMS5003;37093;37.716;-122.060;2023-02-26T10:03:48;6;6;
51052;PMS5003;37093;37.716;-122.060;2023-02-26T10:06:28;10;7;
51052;PMS5003;37093;37.716;-122.060;2023-02-26T10:09:11;8;7;
51052;PMS5003;37093;37.716;-122.060;2023-02-26T10:11:52;9;7;
51052;PMS5003;37093;37.716;-122.060;2023-02-26T10:14:25;6;6;
51052;PMS5003;37093;37.716;-122.060;2023-02-26T10:17:01;4;4;
51052;PMS5003;37093;37.716;-122.060;2023-02-26T10:19:35;9;6;
51052;PMS5003;37093;37.716;-122.060;2023-02-26T10:22:12;5;5;
51052;PMS5003;37093;37.716;-122.060;2023-02-26T10:24:47;6;5;
51052;PMS5003;37093;37.716;-122.060;2023-02-26T10:27:20;6;5;
51052;PMS5003;37093;37.716;-122.060;2023-02-26T10:29:56;5;5;
51052;PMS5003;37093;37.716;-122.060;2023-02-26T10:32:28;9;6;
51052;PMS5003;37093;37.716;-122.060;2023-02-26T10:35:02;6;6;
51052;PMS5003;37093;37.716;-122.060;2023-02-26T10:37:37;6;5;
51052;PMS5003;37093;37.716;-122.060;2023-02-26T10:40:15;8;6;
51052;PMS5003;37093;37.716;-122.060;2023-02-26T10:42:51;5;5;
51052;PMS5003;37093;37.716;-122.060;2023-02-26T10:45:25;7;5;
51052;PMS5003;37093;37.716;-122.060;2023-02-26T10:48:07;5;5;
51052;PMS5003;37093;37.716;-122.060;2023-02-26T10:50:47;7;6;
51052;PMS5003;37093;37.716;-122.060;2023-02-26T10:53:17;8;5;
51052;PMS5003;37093;37.716;-122.060;2023-02-26T10:55:48;6;6;
51052;PMS5003;37093;37.716;-122.060;2023-02-26T10:58:23;7;6;
51052;PMS5003;37093;37.716;-122.060;2023-02-26T11:00:52;7;7;
51052;PMS5003;37093;37.716;-122.060;2023-02-26T11:03:24;4;4;
51052;PMS5003;37093;37.716;-122.060;2023-02-26T11:05:58;4;4;
51052;PMS5003;37093;37.716;-122.060;2023-02-26T11:08:28;6;5;
51052;PMS5003;37093;37.716;-122.060;2023-02-26T11:11:00;4;4;
51052;PMS5003;37093;37.716;-122.060;2023-02-26T11:13:32;5;5;
51052;PMS5003;37093;37.716;-122.060;2023-02-26T11:16:04;6;5;
51052;PMS5003;37093;37.716;-122.060;2023-02-26T11:18:38;4;4;
51052;PMS5003;37093;37.716;-122.060;2023-02-26T11:21:15;4;4;
51052;PMS5003;37093;37.716;-122.060;2023-02-26T11:23:45;6;4;
51052;PMS5003;37093;37.716;-122.060;2023-02-26T11:26:16;4;4;
51052;PMS5003;37093;37.716;-122.060;2023-02-26T11:28:45;7;7;
51052;PMS5003;37093;37.716;-122.060;2023-02-26T11:31:17;5;4;
51052;PMS5003;37093;37.716;-122.060;2023-02-26T11:33:48;7;5;
51052;PMS5003;37093;37.716;-122.060;2023-02-26T11:36:19;8;4;
51052;PMS5003;37093;37.716;-122.060;2023-02-26T11:38:52;6;5;
51052;PMS5003;37093;37.716;-122.060;2023-02-26T11:41:22;4;3;
51052;PMS5003;37093;37.716;-122.060;2023-02-26T11:43:58;5;4;
51052;PMS5003;37093;37.716;-122.060;2023-02-26T11:46:30;5;4;
51052;PMS5003;37093;37.716;-122.060;2023-02-26T11:49:03;7;5;
51052;PMS5003;37093;37.716;-122.060;2023-02-26T11:51:32;5;5;
51052;PMS5003;37093;37.716;-122.060;2023-02-26T11:54:01;5;5;
51052;PMS5003;37093;37.716;-122.060;2023-02-26T11:56:30;3;3;
51052;PMS5003;37093;37.716;-122.060;2023-02-26T11:59:05;5;5;
51052;PMS5003;37093;37.716;-122.060;2023-02-26T12:01:42;5;4;
51052;PMS5003;37093;37.716;-122.060;2023-02-26T12:04:12;7;4;
51052;PMS5003;37093;37.716;-122.060;2023-02-26T12:06:44;5;4;
51052;PMS5003;37093;37.716;-122.060;2023-02-26T12:09:15;5;4;
51052;PMS5003;37093;37.716;-122.060;2023-02-26T12:11:50;4;4;
51052;PMS5003;37093;37.716;-122.060;2023-02-26T12:14:33;2;2;
51052;PMS5003;37093;37.716;-122.060;2023-02-26T12:17:17;6;5;
51052;PMS5003;37093;37.716;-122.060;2023-02-26T12:19:58;4;4;
51052;PMS5003;37093;37.716;-122.060;2023-02-26T12:22:41;4;3;
51052;PMS5003;37093;37.716;-122.060;2023-02-26T12:25:19;4;3;
51052;PMS5003;37093;37.716;-122.060;2023-02-26T12:28:04;7;4;
51052;PMS5003;37093;37.716;-122.060;2023-02-26T12:30:56;4;4;
51052;PMS5003;37093;37.716;-122.060;2023-02-26T12:33:40;5;4;
51052;PMS5003;37093;37.716;-122.060;2023-02-26T12:36:22;4;4;
51052;PMS5003;37093;37.716;-122.060;2023-02-26T12:39:05;6;5;
51052;PMS5003;37093;37.716;-122.060;2023-02-26T12:41:51;3;3;
51052;PMS5003;37093;37.716;-122.060;2023-02-26T12:44:41;6;4;
51052;PMS5003;37093;37.716;-122.060;2023-02-26T12:47:23;6;4;
51052;PMS5003;37093;37.716;-122.060;2023-02-26T12:50:05;3;2;
51052;PMS5003;37093;37.716;-122.060;2023-02-26T12:52:52;3;3;
51052;PMS5003;37093;37.716;-122.060;2023-02-26T12:55:38;4;3;
51052;PMS5003;37093;37.716;-122.060;2023-02-26T12:58:25;2;2;
51052;PMS5003;37093;37.716;-122.060;2023-02-26T13:01:09;2;2;
51052;PMS5003;37093;37.716;-122.060;2023-02-26T13:06:18;6;3;
51052;PMS5003;37093;37.716;-122.060;2023-02-26T13:09:00;4;3;
51052;PMS5003;37093;37.716;-122.060;2023-02-26T13:11:41;3;2;
51052;PMS5003;37093;37.716;-122.060;2023-02-26T13:14:24;2;2;
51052;PMS5003;37093;37.716;-122.060;2023-02-26T13:17:02;5;2;
51052;PMS5003;37093;37.716;-122.060;2023-02-26T13:19:38;4;2;
51052;PMS5003;37093;37.716;-122.060;2023-02-26T13:22:14;3;2;
51052;PMS5003;37093;37.716;-122.060;2023-02-26T13:24:49;4;3;
51052;PMS5003;37093;37.716;-122.060;2023-02-26T13:27:25;2;2;
51052;PMS5003;37093;37.716;-122.060;2023-02-26T13:30:03;1;1;
51052;PMS5003;37093;37.716;-122.060;2023-02-26T13:32:43;2;2;
51052;PMS5003;37093;37.716;-122.060;2023-02-26T13:35:17;1;1;
51052;PMS5003;37093;37.716;-122.060;2023-02-26T13:37:49;2;2;
51052;PMS5003;37093;37.716;-122.060;2023-02-26T13:40:27;1;1;
51052;PMS5003;37093;37.716;-122.060;2023-02-26T13:43:09;2;2;
51052;PMS5003;37093;37.716;-122.060;2023-02-26T13:45:51;0;0;
51052;PMS5003;37093;37.716;-122.060;2023-02-26T13:48:32;3;1;
51052;PMS5003;37093;37.716;-122.060;2023-02-26T13:51:10;1;1;
51052;PMS5003;37093;37.716;-122.060;2023-02-26T13:53:52;1;1;
51052;PMS5003;37093;37.716;-122.060;2023-02-26T13:57:05;1;1;
51052;PMS5003;37093;37.716;-122.060;2023-02-26T13:59:47;2;2;
51052;PMS5003;37093;37.716;-122.060;2023-02-26T14:02:52;0;0;
51052;PMS5003;37093;37.716;-122.060;2023-02-26T14:05:31;2;0;
51052;PMS5003;37093;37.716;-122.060;2023-02-26T14:08:16;1;1;
51052;PMS5003;37093;37.716;-122.060;2023-02-26T14:10:54;1;1;
51052;PMS5003;37093;37.716;-122.060;2023-02-26T14:13:32;0;0;
51052;PMS5003;37093;37.716;-122.060;2023-02-26T14:16:09;1;1;
51052;PMS5003;37093;37.716;-122.060;2023-02-26T14:18:40;1;1;
51052;PMS5003;37093;37.716;-122.060;2023-02-26T14:21:36;1;1;
51052;PMS5003;37093;37.716;-122.060;2023-02-26T14:24:14;1;1;
51052;PMS5003;37093;37.716;-122.060;2023-02-26T14:26:47;0;0;
51052;PMS5003;37093;37.716;-122.060;2023-02-26T14:29:21;1;0;
51052;PMS5003;37093;37.716;-122.060;2023-02-26T14:32:04;1;1;
51052;PMS5003;37093;37.716;-122.060;2023-02-26T14:34:46;1;1;
51052;PMS5003;37093;37.716;-122.060;2023-02-26T14:37:19;1;1;
51052;PMS5003;37093;37.716;-122.060;2023-02-26T14:39:53;1;1;
51052;PMS5003;37093;37.716;-122.060;2023-02-26T14:42:28;1;1;
51052;PMS5003;37093;37.716;-122.060;2023-02-26T14:45:02;2;2;
51052;PMS5003;37093;37.716;-122.060;2023-02-26T14:47:41;2;1;
51052;PMS5003;37093;37.716;-122.060;2023-02-26T14:50:11;1;1;
51052;PMS5003;37093;37.716;-122.060;2023-02-26T14:52:47;5;2;
51052;PMS5003;37093;37.716;-122.060;2023-02-26T14:56:13;2;2;
51052;PMS5003;37093;37.716;-122.060;2023-02-26T14:58:54;1;1;
51052;PMS5003;37093;37.716;-122.060;2023-02-26T15:01:44;3;3;
51052;PMS5003;37093;37.716;-122.060;2023-02-26T15:04:32;2;2;
51052;PMS5003;37093;37.716;-122.060;2023-02-26T15:07:27;3;3;
51052;PMS5003;37093;37.716;-122.060;2023-02-26T15:10:12;2;2;
51052;PMS5003;37093;37.716;-122.060;2023-02-26T15:12:55;3;3;
51052;PMS5003;37093;37.716;-122.060;2023-02-26T15:15:39;3;3;
51052;PMS5003;37093;37.716;-122.060;2023-02-26T15:18:20;3;3;
51052;PMS5003;37093;37.716;-122.060;2023-02-26T15:21:07;3;3;
51052;PMS5003;37093;37.716;-122.060;2023-02-26T15:23:43;3;3;
51052;PMS5003;37093;37.716;-122.060;2023-02-26T15:26:17;2;2;
51052;PMS5003;37093;37.716;-122.060;2023-02-26T15:28:48;3;3;
51052;PMS5003;37093;37.716;-122.060;2023-02-26T15:31:18;3;2;
51052;PMS5003;37093;37.716;-122.060;2023-02-26T15:33:48;3;3;
51052;PMS5003;37093;37.716;-122.060;2023-02-26T15:36:17;3;3;
51052;PMS5003;37093;37.716;-122.060;2023-02-26T15:38:47;3;2;
51052;PMS5003;37093;37.716;-122.060;2023-02-26T15:41:19;4;4;
51052;PMS5003;37093;37.716;-122.060;2023-02-26T15:43:51;4;3;
51052;PMS5003;37093;37.716;-122.060;2023-02-26T15:46:25;4;3;
51052;PMS5003;37093;37.716;-122.060;2023-02-26T15:48:57;2;2;
51052;PMS5003;37093;37.716;-122.060;2023-02-26T15:51:28;1;1;
51052;PMS5003;37093;37.716;-122.060;2023-02-26T15:53:56;4;4;
51052;PMS5003;37093;37.716;-122.060;2023-02-26T15:56:27;3;3;
51052;PMS5003;37093;37.716;-122.060;2023-02-26T15:58:58;4;4;
51052;PMS5003;37093;37.716;-122.060;2023-02-26T16:01:30;3;3;
51052;PMS5003;37093;37.716;-122.060;2023-02-26T16:04:00;3;3;
51052;PMS5003;37093;37.716;-122.060;2023-02-26T16:06:33;2;2;
51052;PMS5003;37093;37.716;-122.060;2023-02-26T16:09:04;4;4;
51052;PMS5003;37093;37.716;-122.060;2023-02-26T16:11:35;6;4;
51052;PMS5003;37093;37.716;-122.060;2023-02-26T16:14:05;4;4;
51052;PMS5003;37093;37.716;-122.060;2023-02-26T16:16:42;6;5;
51052;PMS5003;37093;37.716;-122.060;2023-02-26T16:19:14;6;3;
51052;PMS5003;37093;37.716;-122.060;2023-02-26T16:21:46;5;4;
51052;PMS5003;37093;37.716;-122.060;2023-02-26T16:24:16;6;5;
51052;PMS5003;37093;37.716;-122.060;2023-02-26T16:26:47;6;4;
51052;PMS5003;37093;37.716;-122.060;2023-02-26T16:29:20;6;6;
51052;PMS5003;37093;37.716;-122.060;2023-02-26T16:31:51;4;4;
51052;PMS5003;37093;37.716;-122.060;2023-02-26T16:34:24;5;4;
51052;PMS5003;37093;37.716;-122.060;2023-02-26T16:37:08;5;5;
51052;PMS5003;37093;37.716;-122.060;2023-02-26T16:39:44;6;5;
51052;PMS5003;37093;37.716;-122.060;2023-02-26T16:42:13;4;4;
51052;PMS5003;37093;37.716;-122.060;2023-02-26T16:44:49;6;6;